createdAt,value
2019-02-21T00:01:23.111Z,25.30
2019-02-21T00:04:18.988Z,25.30
2019-02-21T00:07:14.194Z,25.30
2019-02-21T00:10:09.456Z,25.30
2019-02-21T00:13:04.612Z,25.30
2019-02-21T00:16:00.222Z,25.30
2019-02-21T00:18:55.450Z,25.20
2019-02-21T00:21:50.697Z,25.20
2019-02-21T00:24:46.232Z,25.20
2019-02-21T00:27:41.947Z,25.10
2019-02-21T00:30:37.140Z,25.10
2019-02-21T00:33:32.245Z,25.10
2019-02-21T00:36:29.101Z,25.10
2019-02-21T00:39:24.252Z,25.00
2019-02-21T00:42:19.826Z,25.00
2019-02-21T00:45:17.018Z,25.00
2019-02-21T00:48:12.262Z,25.00
2019-02-21T00:51:07.629Z,24.90
2019-02-21T00:54:02.509Z,24.90
2019-02-21T00:56:57.998Z,24.90
2019-02-21T00:59:54.517Z,24.90
2019-02-21T01:02:49.566Z,24.90
2019-02-21T01:05:45.348Z,24.90
2019-02-21T01:08:40.228Z,24.90
2019-02-21T01:11:36.010Z,24.90
2019-02-21T01:14:31.114Z,24.80
2019-02-21T01:17:26.258Z,24.80
2019-02-21T01:20:21.626Z,24.70
2019-02-21T01:23:16.841Z,24.70
2019-02-21T01:26:11.995Z,24.60
2019-02-21T01:29:07.127Z,24.60
2019-02-21T01:32:02.043Z,24.60
2019-02-21T01:34:57.850Z,24.60
2019-02-21T01:37:52.907Z,24.60
2019-02-21T01:40:48.254Z,24.60
2019-02-21T01:43:43.539Z,24.60
2019-02-21T01:46:38.514Z,24.60
2019-02-21T01:49:33.710Z,24.60
2019-02-21T01:52:28.778Z,24.60
2019-02-21T01:55:23.882Z,24.60
2019-02-21T01:58:18.803Z,24.70
2019-02-21T02:01:15.147Z,24.70
2019-02-21T02:04:11.940Z,24.80
2019-02-21T02:07:07.111Z,24.90
2019-02-21T02:10:02.070Z,24.90
2019-02-21T02:12:57.109Z,25.00
2019-02-21T02:15:52.434Z,25.00
2019-02-21T02:18:48.006Z,25.00
2019-02-21T02:21:44.927Z,25.00
2019-02-21T02:24:40.253Z,25.10
2019-02-21T02:27:35.491Z,25.10
2019-02-21T02:30:32.426Z,25.10
2019-02-21T02:33:27.731Z,25.20
2019-02-21T02:36:23.505Z,25.20
2019-02-21T02:39:18.371Z,25.20
2019-02-21T02:42:13.515Z,25.20
2019-02-21T02:45:08.802Z,25.30
2019-02-21T02:48:04.233Z,25.30
2019-02-21T02:50:59.327Z,25.30
2019-02-21T02:53:54.390Z,25.40
2019-02-21T02:56:49.736Z,25.40
2019-02-21T02:59:45.970Z,25.40
2019-02-21T03:02:40.855Z,25.50
2019-02-21T03:05:37.250Z,25.50
2019-02-21T03:08:34.440Z,25.50
2019-02-21T03:11:29.947Z,25.60
2019-02-21T03:14:25.177Z,25.70
2019-02-21T03:17:20.065Z,25.70
2019-02-21T03:20:16.680Z,25.80
2019-02-21T03:23:11.984Z,25.80
2019-02-21T03:26:07.098Z,25.80
2019-02-21T03:29:02.467Z,25.90
2019-02-21T03:32:01.306Z,25.90
2019-02-21T03:34:58.496Z,26.00
2019-02-21T03:37:54.449Z,26.00
2019-02-21T03:40:50.075Z,26.00
2019-02-21T03:43:45.211Z,26.10
2019-02-21T03:46:42.807Z,26.00
2019-02-21T03:49:37.953Z,26.10
2019-02-21T03:52:33.733Z,26.10
2019-02-21T03:55:30.254Z,26.20
2019-02-21T03:58:26.183Z,26.20
2019-02-21T04:01:21.212Z,26.30
2019-02-21T04:04:16.311Z,26.30
2019-02-21T04:07:11.694Z,26.30
2019-02-21T04:10:07.103Z,26.40
2019-02-21T04:13:05.395Z,26.40
2019-02-21T04:16:00.856Z,26.50
2019-02-21T04:18:56.405Z,26.50
2019-02-21T04:21:51.538Z,26.60
2019-02-21T04:24:47.246Z,26.70
2019-02-21T04:27:49.586Z,26.80
2019-02-21T04:30:45.698Z,26.80
2019-02-21T04:33:41.743Z,26.90
2019-02-21T04:36:37.573Z,26.90
2019-02-21T04:39:40.231Z,27.00
2019-02-21T04:42:39.885Z,27.00
2019-02-21T04:45:39.732Z,27.10
2019-02-21T04:48:35.675Z,27.10
2019-02-21T04:51:31.737Z,27.10
2019-02-21T04:54:26.458Z,27.20
2019-02-21T04:57:21.324Z,27.20
2019-02-21T05:00:18.357Z,27.30
2019-02-21T05:03:15.055Z,27.40
2019-02-21T05:06:10.746Z,27.40
2019-02-21T05:09:07.668Z,27.50
2019-02-21T05:12:06.969Z,27.60
2019-02-21T05:15:04.286Z,27.60
2019-02-21T05:17:59.599Z,27.70
2019-02-21T05:21:27.767Z,27.70
2019-02-21T05:24:34.237Z,27.80
2019-02-21T05:27:45.505Z,27.90
2019-02-21T05:31:39.639Z,28.00
2019-02-21T05:34:54.753Z,28.00
2019-02-21T05:37:57.616Z,28.20
2019-02-21T05:41:17.724Z,28.20
2019-02-21T05:44:29.138Z,28.30
2019-02-21T05:47:46.573Z,28.40
2019-02-21T05:50:47.923Z,28.40
2019-02-21T05:54:17.038Z,28.50
2019-02-21T05:57:39.432Z,28.60
2019-02-21T06:01:11.374Z,28.70
2019-02-21T06:04:23.648Z,28.70
2019-02-21T06:07:42.677Z,28.80
2019-02-21T06:11:17.994Z,28.80
2019-02-21T06:14:40.756Z,28.90
2019-02-21T06:19:07.513Z,29.00
2019-02-21T06:22:31.319Z,29.10
2019-02-21T06:26:06.387Z,29.20
2019-02-21T06:29:27.836Z,29.30
2019-02-21T06:32:24.254Z,29.30
2019-02-21T06:35:24.234Z,29.40
2019-02-21T06:38:23.579Z,29.50
2019-02-21T06:41:24.398Z,29.50
2019-02-21T06:44:23.764Z,29.60
2019-02-21T06:47:24.612Z,29.70
2019-02-21T06:50:27.041Z,29.80
2019-02-21T06:53:26.118Z,29.90
2019-02-21T06:56:22.976Z,30.00
2019-02-21T06:59:20.401Z,30.10
2019-02-21T07:02:20.241Z,30.20
2019-02-21T07:05:22.154Z,30.30
2019-02-21T07:08:19.914Z,30.30
2019-02-21T07:11:16.097Z,30.40
2019-02-21T07:14:12.634Z,30.50
2019-02-21T07:17:09.656Z,30.60
2019-02-21T07:20:08.240Z,30.70
2019-02-21T07:23:07.684Z,30.80
2019-02-21T07:26:07.321Z,31.00
2019-02-21T07:29:07.168Z,31.10
2019-02-21T07:32:04.076Z,31.20
2019-02-21T07:35:16.220Z,31.40
2019-02-21T07:38:11.925Z,31.50
2019-02-21T07:41:08.274Z,31.50
2019-02-21T07:44:12.053Z,31.60
2019-02-21T07:47:04.754Z,31.70
2019-02-21T07:50:15.910Z,31.70
2019-02-21T07:53:16.436Z,31.80
2019-02-21T07:56:12.911Z,31.90
2019-02-21T07:59:11.926Z,31.90
2019-02-21T08:02:05.706Z,32.10
2019-02-21T08:05:02.470Z,32.20
2019-02-21T08:07:58.354Z,32.30
2019-02-21T08:11:11.974Z,32.40
2019-02-21T08:14:26.539Z,32.60
2019-02-21T08:17:17.662Z,32.70
2019-02-21T08:20:15.499Z,32.70
2019-02-21T08:23:19.015Z,32.70
2019-02-21T08:26:46.620Z,32.80
2019-02-21T08:29:52.213Z,32.80
2019-02-21T08:33:20.640Z,32.80
2019-02-21T08:36:18.859Z,32.70
2019-02-21T08:39:14.859Z,32.80
2019-02-21T08:42:12.668Z,32.80
2019-02-21T08:45:11.556Z,32.80
2019-02-21T08:48:08.934Z,32.90
2019-02-21T08:51:11.881Z,32.90
2019-02-21T08:54:17.601Z,33.00
2019-02-21T08:57:13.775Z,33.10
2019-02-21T09:00:10.982Z,33.10
2019-02-21T09:03:23.454Z,33.10
2019-02-21T09:06:20.321Z,33.20
2019-02-21T09:09:15.789Z,33.20
2019-02-21T09:12:11.414Z,33.20
2019-02-21T09:15:06.988Z,33.20
2019-02-21T09:18:16.107Z,33.30
2019-02-21T09:21:41.241Z,33.30
2019-02-21T09:24:47.698Z,33.30
2019-02-21T09:27:59.747Z,33.40
2019-02-21T09:30:56.594Z,33.50
2019-02-21T09:33:54.087Z,33.70
2019-02-21T09:36:51.549Z,33.80
2019-02-21T09:39:51.054Z,33.90
2019-02-21T09:42:49.630Z,34.10
2019-02-21T09:45:46.408Z,34.20
2019-02-21T09:49:03.084Z,34.40
2019-02-21T09:51:59.287Z,34.60
2019-02-21T09:54:57.360Z,34.80
2019-02-21T09:57:53.994Z,35.10
2019-02-21T10:01:07.797Z,35.20
2019-02-21T10:05:04.176Z,35.40
2019-02-21T10:13:38.219Z,35.50
2019-02-21T10:17:05.511Z,35.50
2019-02-21T10:24:50.867Z,35.40
2019-02-21T10:27:47.474Z,35.30
2019-02-21T10:30:45.848Z,35.20
2019-02-21T10:33:47.118Z,35.20
2019-02-21T10:36:37.923Z,35.10
2019-02-21T10:39:33.817Z,35.00
2019-02-21T10:42:32.472Z,35.00
2019-02-21T10:45:28.689Z,34.90
2019-02-21T10:48:25.060Z,34.80
2019-02-21T10:51:23.050Z,34.80
2019-02-21T10:54:20.589Z,34.70
2019-02-21T10:57:17.081Z,34.60
2019-02-21T11:00:18.095Z,34.60
2019-02-21T11:03:14.129Z,34.50
2019-02-21T11:06:15.949Z,34.40
2019-02-21T11:09:16.653Z,34.30
2019-02-21T11:12:14.677Z,34.20
2019-02-21T11:15:12.601Z,34.10
2019-02-21T11:18:08.458Z,34.00
2019-02-21T11:21:06.783Z,33.90
2019-02-21T11:24:03.724Z,33.90
2019-02-21T11:27:00.011Z,33.80
2019-02-21T11:29:59.051Z,33.80
2019-02-21T11:32:54.626Z,33.70
2019-02-21T11:35:51.568Z,33.70
2019-02-21T11:38:48.982Z,33.60
2019-02-21T11:41:44.681Z,33.60
2019-02-21T11:44:40.902Z,33.50
2019-02-21T11:47:36.362Z,33.50
2019-02-21T11:50:35.013Z,33.40
2019-02-21T11:53:30.706Z,33.20
2019-02-21T11:56:28.509Z,33.20
2019-02-21T11:59:29.169Z,33.10
2019-02-21T12:02:38.836Z,33.00
2019-02-21T12:05:31.302Z,32.90
2019-02-21T12:08:24.489Z,32.80
2019-02-21T12:11:20.857Z,32.70
2019-02-21T12:14:17.505Z,32.70
2019-02-21T12:17:42.549Z,32.60
2019-02-21T12:20:41.246Z,32.50
2019-02-21T12:33:59.568Z,32.10
2019-02-21T12:37:13.488Z,32.00
2019-02-21T12:41:11.630Z,32.00
2019-02-21T12:44:33.934Z,31.90
2019-02-21T12:47:49.721Z,31.80
2019-02-21T12:50:43.978Z,31.70
2019-02-21T12:53:32.279Z,31.60
2019-02-21T12:56:28.227Z,31.60
2019-02-21T12:59:23.972Z,31.50
2019-02-21T13:02:19.743Z,31.40
2019-02-21T13:05:15.216Z,31.40
2019-02-21T13:08:13.165Z,31.40
2019-02-21T13:11:08.681Z,31.30
2019-02-21T13:14:04.082Z,31.30
2019-02-21T13:16:59.341Z,31.30
2019-02-21T13:19:54.487Z,31.20
2019-02-21T13:22:51.042Z,31.20
2019-02-21T13:25:46.549Z,31.20
2019-02-21T13:28:41.980Z,31.20
2019-02-21T13:31:37.190Z,31.10
2019-02-21T13:34:33.085Z,31.10
2019-02-21T13:37:29.192Z,31.00
2019-02-21T13:40:24.485Z,31.00
2019-02-21T13:43:20.304Z,31.00
2019-02-21T13:46:16.705Z,30.90
2019-02-21T13:49:12.028Z,30.90
2019-02-21T13:52:08.273Z,30.80
2019-02-21T13:55:04.116Z,30.80
2019-02-21T13:57:59.863Z,30.80
2019-02-21T14:00:56.609Z,30.70
2019-02-21T14:03:51.810Z,30.70
2019-02-21T14:06:46.937Z,30.70
2019-02-21T14:09:42.342Z,30.60
2019-02-21T14:12:38.151Z,30.60
2019-02-21T14:15:46.481Z,30.60
2019-02-21T14:18:42.708Z,30.50
2019-02-21T14:21:50.179Z,30.50
2019-02-21T14:24:46.601Z,30.50
2019-02-21T14:27:42.748Z,30.40
2019-02-21T14:30:38.083Z,30.40
2019-02-21T14:33:33.996Z,30.40
2019-02-21T14:36:32.556Z,30.30
2019-02-21T14:39:27.840Z,30.30
2019-02-21T14:42:23.016Z,30.30
2019-02-21T14:45:19.454Z,30.20
2019-02-21T14:48:14.766Z,30.20
2019-02-21T14:51:10.488Z,30.20
2019-02-21T14:54:05.452Z,30.10
2019-02-21T14:57:01.434Z,30.10
2019-02-21T14:59:56.504Z,30.10
2019-02-21T15:02:52.133Z,30.10
2019-02-21T15:05:47.216Z,30.00
2019-02-21T15:08:42.803Z,30.00
2019-02-21T15:11:37.894Z,30.00
2019-02-21T15:14:33.394Z,30.00
2019-02-21T15:17:29.131Z,29.90
2019-02-21T15:20:35.884Z,29.90
2019-02-21T15:23:21.380Z,29.90
2019-02-21T15:26:17.394Z,29.90
2019-02-21T15:29:13.265Z,29.90
2019-02-21T15:32:11.601Z,29.90
2019-02-21T15:35:06.160Z,29.90
2019-02-21T15:38:02.863Z,29.80
2019-02-21T15:40:58.204Z,29.80
2019-02-21T15:43:53.235Z,29.80
2019-02-21T15:46:48.443Z,29.80
2019-02-21T15:49:43.702Z,29.70
2019-02-21T15:52:39.045Z,29.70
2019-02-21T15:55:34.957Z,29.70
2019-02-21T15:58:29.671Z,29.70
2019-02-21T16:01:25.400Z,29.70
2019-02-21T16:04:23.250Z,29.60
2019-02-21T16:07:20.926Z,29.60
2019-02-21T16:10:18.286Z,29.60
2019-02-21T16:13:13.709Z,29.60
2019-02-21T16:16:08.663Z,29.50
2019-02-21T16:19:03.974Z,29.50
2019-02-21T16:21:59.905Z,29.50
2019-02-21T16:24:57.988Z,29.50
2019-02-21T16:27:50.107Z,29.40
2019-02-21T16:30:45.560Z,29.40
2019-02-21T16:33:41.490Z,29.40
2019-02-21T16:36:37.005Z,29.40
2019-02-21T16:39:33.114Z,29.40
2019-02-21T16:42:32.318Z,29.30
2019-02-21T16:45:42.382Z,29.30
2019-02-21T16:48:26.076Z,29.30
2019-02-21T16:51:22.248Z,29.30
2019-02-21T16:54:16.611Z,29.30
2019-02-21T16:57:14.135Z,29.20
2019-02-21T17:00:09.896Z,29.20
2019-02-21T17:03:08.992Z,29.20
2019-02-21T17:06:10.568Z,29.10
2019-02-21T17:09:07.830Z,29.10
2019-02-21T17:12:03.525Z,29.10
2019-02-21T17:14:59.248Z,29.10
2019-02-21T17:18:03.881Z,29.00
2019-02-21T17:20:57.943Z,29.00
2019-02-21T17:23:59.656Z,29.00
2019-02-21T17:26:51.763Z,28.90
2019-02-21T17:29:46.836Z,28.90
2019-02-21T17:32:41.829Z,28.90
2019-02-21T17:35:36.959Z,28.90
2019-02-21T17:38:32.014Z,28.90
2019-02-21T17:41:26.958Z,28.90
2019-02-21T17:44:21.721Z,28.90
2019-02-21T17:47:17.136Z,28.90
2019-02-21T17:50:12.761Z,28.90
2019-02-21T17:53:07.668Z,28.80
2019-02-21T17:56:02.443Z,28.80
2019-02-21T17:58:58.437Z,28.80
2019-02-21T18:01:53.501Z,28.70
2019-02-21T18:04:48.445Z,28.70
2019-02-21T18:07:43.445Z,28.70
2019-02-21T18:10:38.425Z,28.60
2019-02-21T18:13:33.673Z,28.60
2019-02-21T18:16:28.632Z,28.60
2019-02-21T18:19:23.720Z,28.50
2019-02-21T18:22:18.544Z,28.50
2019-02-21T18:25:16.685Z,28.40
2019-02-21T18:28:11.889Z,28.40
2019-02-21T18:31:07.045Z,28.40
2019-02-21T18:34:01.873Z,28.40
2019-02-21T18:36:56.467Z,28.30
2019-02-21T18:39:51.100Z,28.30
2019-02-21T18:42:45.936Z,28.30
2019-02-21T18:45:40.571Z,28.30
2019-02-21T18:48:36.588Z,28.30
2019-02-21T18:51:32.598Z,28.30
2019-02-21T18:54:27.547Z,28.30
2019-02-21T18:57:22.590Z,28.30
2019-02-21T19:00:20.059Z,28.20
2019-02-21T19:03:15.283Z,28.20
2019-02-21T19:06:10.012Z,28.10
2019-02-21T19:09:06.250Z,28.10
2019-02-21T19:12:01.162Z,28.10
2019-02-21T19:14:56.217Z,28.10
2019-02-21T19:17:51.373Z,28.00
2019-02-21T19:20:46.426Z,28.00
2019-02-21T19:23:41.581Z,28.00
2019-02-21T19:26:36.586Z,27.90
2019-02-21T19:29:31.440Z,27.90
2019-02-21T19:32:26.468Z,27.90
2019-02-21T19:35:22.145Z,27.80
2019-02-21T19:38:16.736Z,27.80
2019-02-21T19:41:12.139Z,27.80
2019-02-21T19:44:09.166Z,27.80
2019-02-21T19:47:03.397Z,27.80
2019-02-21T19:49:58.469Z,27.80
2019-02-21T19:52:53.892Z,27.70
2019-02-21T19:55:48.799Z,27.80
2019-02-21T19:58:43.765Z,27.70
2019-02-21T20:01:39.192Z,27.70
2019-02-21T20:04:34.077Z,27.70
2019-02-21T20:07:29.381Z,27.70
2019-02-21T20:10:25.052Z,27.70
2019-02-21T20:13:19.988Z,27.70
2019-02-21T20:16:15.012Z,27.70
2019-02-21T20:19:09.665Z,27.60
2019-02-21T20:22:04.451Z,27.60
2019-02-21T20:24:59.751Z,27.60
2019-02-21T20:27:55.605Z,27.60
2019-02-21T20:30:51.226Z,27.60
2019-02-21T20:33:47.729Z,27.50
2019-02-21T20:36:50.747Z,27.50
2019-02-21T20:39:38.181Z,27.50
2019-02-21T20:42:33.202Z,27.50
2019-02-21T20:45:28.235Z,27.50
2019-02-21T20:48:23.059Z,27.50
2019-02-21T20:51:17.710Z,27.50
2019-02-21T20:54:13.004Z,27.50
2019-02-21T20:57:08.295Z,27.40
2019-02-21T21:00:04.414Z,27.40
2019-02-21T21:02:59.617Z,27.40
2019-02-21T21:05:54.994Z,27.30
2019-02-21T21:08:50.255Z,27.30
2019-02-21T21:11:45.015Z,27.30
2019-02-21T21:14:40.257Z,27.30
2019-02-21T21:17:35.123Z,27.30
2019-02-21T21:20:30.903Z,27.30
2019-02-21T21:23:25.787Z,27.20
2019-02-21T21:26:20.643Z,27.20
2019-02-21T21:29:15.925Z,27.20
2019-02-21T21:32:11.639Z,27.20
2019-02-21T21:35:06.658Z,27.10
2019-02-21T21:38:01.430Z,27.10
2019-02-21T21:40:56.257Z,27.10
2019-02-21T21:43:52.037Z,27.10
2019-02-21T21:46:47.169Z,27.10
2019-02-21T21:49:42.923Z,27.10
2019-02-21T21:52:37.776Z,27.10
2019-02-21T21:55:33.646Z,27.10
2019-02-21T21:58:28.932Z,27.10
2019-02-21T22:01:24.672Z,27.10
2019-02-21T22:04:21.131Z,27.10
2019-02-21T22:07:16.401Z,27.10
2019-02-21T22:10:14.021Z,27.10
2019-02-21T22:13:09.018Z,27.10
2019-02-21T22:16:04.386Z,27.10
2019-02-21T22:18:59.190Z,27.10
2019-02-21T22:21:53.947Z,27.10
2019-02-21T22:24:49.270Z,27.10
2019-02-21T22:27:44.810Z,27.00
2019-02-21T22:30:40.033Z,27.00
2019-02-21T22:33:36.399Z,27.00
2019-02-21T22:36:31.519Z,26.90
2019-02-21T22:39:26.502Z,26.90
2019-02-21T22:42:21.926Z,26.90
2019-02-21T22:45:17.174Z,26.90
2019-02-21T22:48:12.037Z,26.80
2019-02-21T22:51:07.918Z,26.80
2019-02-21T22:54:02.748Z,26.80
2019-02-21T22:56:57.664Z,26.80
2019-02-21T22:59:52.869Z,26.80
2019-02-21T23:02:47.809Z,26.80
2019-02-21T23:06:21.287Z,26.80
2019-02-21T23:09:26.870Z,26.80
2019-02-21T23:12:17.165Z,26.80
2019-02-21T23:15:13.620Z,26.80
2019-02-21T23:18:09.243Z,26.70
2019-02-21T23:21:04.779Z,26.80
2019-02-21T23:24:00.237Z,26.70
2019-02-21T23:26:55.545Z,26.70
2019-02-21T23:29:51.305Z,26.70
2019-02-21T23:32:46.283Z,26.60
2019-02-21T23:35:42.005Z,26.70
2019-02-21T23:38:37.611Z,26.60
2019-02-21T23:41:32.430Z,26.60
2019-02-21T23:44:27.513Z,26.60
2019-02-21T23:47:22.550Z,26.60
2019-02-21T23:50:17.328Z,26.60
2019-02-21T23:53:12.746Z,26.50
2019-02-21T23:56:08.513Z,26.50
2019-02-21T23:59:03.447Z,26.50
